sensor_id;sensor_type;location;lat;lon;timestamp;P1;durP1;ratioP1;P2;durP2;ratioP2
27543;SDS011;17996;51.056;3.656;2022-07-12T00:01:19;6.15;;;4.18;;
27543;SDS011;17996;51.056;3.656;2022-07-12T00:03:45;6.65;;;4.30;;
27543;SDS011;17996;51.056;3.656;2022-07-12T00:06:11;5.15;;;4.40;;
27543;SDS011;17996;51.056;3.656;2022-07-12T00:08:36;7.43;;;4.50;;
27543;SDS011;17996;51.056;3.656;2022-07-12T00:11:03;4.50;;;4.10;;
27543;SDS011;17996;51.056;3.656;2022-07-12T00:13:32;5.75;;;3.75;;
27543;SDS011;17996;51.056;3.656;2022-07-12T00:15:58;5.05;;;3.65;;
27543;SDS011;17996;51.056;3.656;2022-07-12T00:18:24;5.88;;;3.97;;
27543;SDS011;17996;51.056;3.656;2022-07-12T00:20:49;4.15;;;3.60;;
27543;SDS011;17996;51.056;3.656;2022-07-12T00:23:15;5.47;;;4.15;;
27543;SDS011;17996;51.056;3.656;2022-07-12T00:25:42;6.32;;;4.35;;
27543;SDS011;17996;51.056;3.656;2022-07-12T00:28:08;7.60;;;4.13;;
27543;SDS011;17996;51.056;3.656;2022-07-12T00:30:34;4.80;;;3.67;;
27543;SDS011;17996;51.056;3.656;2022-07-12T00:32:59;4.53;;;3.97;;
27543;SDS011;17996;51.056;3.656;2022-07-12T00:35:25;5.93;;;4.15;;
27543;SDS011;17996;51.056;3.656;2022-07-12T00:37:51;7.65;;;4.57;;
27543;SDS011;17996;51.056;3.656;2022-07-12T00:40:17;5.38;;;3.78;;
27543;SDS011;17996;51.056;3.656;2022-07-12T00:42:43;7.25;;;4.40;;
27543;SDS011;17996;51.056;3.656;2022-07-12T00:45:08;6.15;;;4.25;;
27543;SDS011;17996;51.056;3.656;2022-07-12T00:47:35;8.43;;;3.97;;
27543;SDS011;17996;51.056;3.656;2022-07-12T00:50:16;6.28;;;4.88;;
27543;SDS011;17996;51.056;3.656;2022-07-12T00:52:44;6.82;;;4.05;;
27543;SDS011;17996;51.056;3.656;2022-07-12T00:55:11;4.20;;;3.70;;
27543;SDS011;17996;51.056;3.656;2022-07-12T00:57:38;5.47;;;4.32;;
27543;SDS011;17996;51.056;3.656;2022-07-12T01:00:07;4.88;;;4.38;;
27543;SDS011;17996;51.056;3.656;2022-07-12T01:02:35;6.20;;;4.32;;
27543;SDS011;17996;51.056;3.656;2022-07-12T01:05:03;4.03;;;3.65;;
27543;SDS011;17996;51.056;3.656;2022-07-12T01:07:30;5.50;;;3.78;;
27543;SDS011;17996;51.056;3.656;2022-07-12T01:09:56;5.00;;;4.05;;
27543;SDS011;17996;51.056;3.656;2022-07-12T01:12:22;4.60;;;3.90;;
27543;SDS011;17996;51.056;3.656;2022-07-12T01:14:49;7.03;;;4.10;;
27543;SDS011;17996;51.056;3.656;2022-07-12T01:17:22;4.93;;;3.78;;
27543;SDS011;17996;51.056;3.656;2022-07-12T01:19:49;4.28;;;3.83;;
27543;SDS011;17996;51.056;3.656;2022-07-12T01:22:16;5.35;;;3.90;;
27543;SDS011;17996;51.056;3.656;2022-07-12T01:24:44;5.55;;;3.88;;
27543;SDS011;17996;51.056;3.656;2022-07-12T01:27:10;5.82;;;3.83;;
27543;SDS011;17996;51.056;3.656;2022-07-12T01:29:37;7.15;;;4.15;;
27543;SDS011;17996;51.056;3.656;2022-07-12T01:32:03;5.63;;;4.13;;
27543;SDS011;17996;51.056;3.656;2022-07-12T01:34:52;4.60;;;4.05;;
27543;SDS011;17996;51.056;3.656;2022-07-12T01:37:19;5.43;;;3.97;;
27543;SDS011;17996;51.056;3.656;2022-07-12T01:39:47;5.10;;;4.35;;
27543;SDS011;17996;51.056;3.656;2022-07-12T01:42:14;5.15;;;4.45;;
27543;SDS011;17996;51.056;3.656;2022-07-12T01:44:40;4.63;;;3.70;;
27543;SDS011;17996;51.056;3.656;2022-07-12T01:47:06;6.53;;;4.28;;
27543;SDS011;17996;51.056;3.656;2022-07-12T01:49:32;7.65;;;3.83;;
27543;SDS011;17996;51.056;3.656;2022-07-12T01:51:58;4.78;;;4.05;;
27543;SDS011;17996;51.056;3.656;2022-07-12T01:54:24;7.15;;;3.90;;
27543;SDS011;17996;51.056;3.656;2022-07-12T01:56:54;4.30;;;3.90;;
27543;SDS011;17996;51.056;3.656;2022-07-12T02:01:46;6.22;;;3.97;;
27543;SDS011;17996;51.056;3.656;2022-07-12T02:04:15;7.55;;;4.22;;
27543;SDS011;17996;51.056;3.656;2022-07-12T02:06:41;5.93;;;4.10;;
27543;SDS011;17996;51.056;3.656;2022-07-12T02:09:09;4.32;;;3.80;;
27543;SDS011;17996;51.056;3.656;2022-07-12T02:11:34;4.07;;;3.67;;
27543;SDS011;17996;51.056;3.656;2022-07-12T02:14:00;14.23;;;5.03;;
27543;SDS011;17996;51.056;3.656;2022-07-12T02:16:25;5.13;;;4.38;;
27543;SDS011;17996;51.056;3.656;2022-07-12T02:18:51;4.68;;;4.25;;
27543;SDS011;17996;51.056;3.656;2022-07-12T02:21:17;4.25;;;3.70;;
27543;SDS011;17996;51.056;3.656;2022-07-12T02:23:42;4.18;;;3.67;;
27543;SDS011;17996;51.056;3.656;2022-07-12T02:26:08;6.18;;;3.90;;
27543;SDS011;17996;51.056;3.656;2022-07-12T02:28:34;5.10;;;3.92;;
27543;SDS011;17996;51.056;3.656;2022-07-12T02:30:59;5.53;;;4.20;;
27543;SDS011;17996;51.056;3.656;2022-07-12T02:33:25;4.97;;;4.03;;
27543;SDS011;17996;51.056;3.656;2022-07-12T02:35:51;7.40;;;4.60;;
27543;SDS011;17996;51.056;3.656;2022-07-12T02:38:16;5.22;;;4.30;;
27543;SDS011;17996;51.056;3.656;2022-07-12T02:40:42;8.35;;;4.40;;
27543;SDS011;17996;51.056;3.656;2022-07-12T02:43:26;4.85;;;4.38;;
27543;SDS011;17996;51.056;3.656;2022-07-12T02:45:54;4.18;;;3.78;;
27543;SDS011;17996;51.056;3.656;2022-07-12T02:48:23;4.45;;;4.05;;
27543;SDS011;17996;51.056;3.656;2022-07-12T02:50:49;4.50;;;3.72;;
27543;SDS011;17996;51.056;3.656;2022-07-12T02:53:15;4.10;;;3.75;;
27543;SDS011;17996;51.056;3.656;2022-07-12T02:55:41;5.88;;;4.40;;
27543;SDS011;17996;51.056;3.656;2022-07-12T02:58:07;10.60;;;4.70;;
27543;SDS011;17996;51.056;3.656;2022-07-12T03:00:33;4.05;;;3.72;;
27543;SDS011;17996;51.056;3.656;2022-07-12T03:03:00;11.38;;;4.63;;
27543;SDS011;17996;51.056;3.656;2022-07-12T03:05:26;6.22;;;4.40;;
27543;SDS011;17996;51.056;3.656;2022-07-12T03:07:52;5.10;;;4.60;;
27543;SDS011;17996;51.056;3.656;2022-07-12T03:10:18;5.80;;;5.07;;
27543;SDS011;17996;51.056;3.656;2022-07-12T03:12:44;6.45;;;5.18;;
27543;SDS011;17996;51.056;3.656;2022-07-12T03:15:10;7.30;;;5.38;;
27543;SDS011;17996;51.056;3.656;2022-07-12T03:17:36;8.55;;;5.45;;
27543;SDS011;17996;51.056;3.656;2022-07-12T03:20:02;5.45;;;4.78;;
27543;SDS011;17996;51.056;3.656;2022-07-12T03:24:56;6.28;;;4.85;;
27543;SDS011;17996;51.056;3.656;2022-07-12T03:27:22;6.57;;;5.00;;
27543;SDS011;17996;51.056;3.656;2022-07-12T03:29:47;6.95;;;3.97;;
27543;SDS011;17996;51.056;3.656;2022-07-12T03:32:13;5.78;;;5.15;;
27543;SDS011;17996;51.056;3.656;2022-07-12T03:34:39;6.35;;;5.47;;
27543;SDS011;17996;51.056;3.656;2022-07-12T03:37:04;6.13;;;5.18;;
27543;SDS011;17996;51.056;3.656;2022-07-12T03:39:30;6.18;;;5.22;;
27543;SDS011;17996;51.056;3.656;2022-07-12T03:41:56;5.90;;;4.95;;
27543;SDS011;17996;51.056;3.656;2022-07-12T03:44:21;6.13;;;4.63;;
27543;SDS011;17996;51.056;3.656;2022-07-12T03:46:47;6.07;;;5.50;;
27543;SDS011;17996;51.056;3.656;2022-07-12T03:49:13;5.22;;;4.72;;
27543;SDS011;17996;51.056;3.656;2022-07-12T03:51:39;18.42;;;4.88;;
27543;SDS011;17996;51.056;3.656;2022-07-12T03:54:05;8.77;;;5.18;;
27543;SDS011;17996;51.056;3.656;2022-07-12T03:56:34;5.05;;;4.53;;
27543;SDS011;17996;51.056;3.656;2022-07-12T03:59:19;5.78;;;4.40;;
27543;SDS011;17996;51.056;3.656;2022-07-12T04:01:45;7.47;;;5.63;;
27543;SDS011;17996;51.056;3.656;2022-07-12T04:04:10;7.00;;;4.50;;
27543;SDS011;17996;51.056;3.656;2022-07-12T04:06:36;7.53;;;4.82;;
27543;SDS011;17996;51.056;3.656;2022-07-12T04:09:03;6.50;;;4.55;;
27543;SDS011;17996;51.056;3.656;2022-07-12T04:11:29;5.00;;;4.50;;
27543;SDS011;17996;51.056;3.656;2022-07-12T04:13:54;5.40;;;4.32;;
27543;SDS011;17996;51.056;3.656;2022-07-12T04:16:21;5.15;;;4.38;;
27543;SDS011;17996;51.056;3.656;2022-07-12T04:18:46;6.18;;;3.95;;
27543;SDS011;17996;51.056;3.656;2022-07-12T04:21:12;5.07;;;4.13;;
27543;SDS011;17996;51.056;3.656;2022-07-12T04:23:38;4.28;;;3.88;;
27543;SDS011;17996;51.056;3.656;2022-07-12T04:26:03;4.78;;;4.32;;
27543;SDS011;17996;51.056;3.656;2022-07-12T04:28:29;4.03;;;3.72;;
27543;SDS011;17996;51.056;3.656;2022-07-12T04:30:55;5.28;;;4.78;;
27543;SDS011;17996;51.056;3.656;2022-07-12T04:33:20;5.65;;;4.60;;
27543;SDS011;17996;51.056;3.656;2022-07-12T04:35:46;8.07;;;4.97;;
27543;SDS011;17996;51.056;3.656;2022-07-12T04:38:12;7.45;;;4.57;;
27543;SDS011;17996;51.056;3.656;2022-07-12T04:40:37;6.28;;;3.78;;
27543;SDS011;17996;51.056;3.656;2022-07-12T04:43:03;4.82;;;4.30;;
27543;SDS011;17996;51.056;3.656;2022-07-12T04:45:29;5.55;;;4.65;;
27543;SDS011;17996;51.056;3.656;2022-07-12T04:47:55;7.93;;;4.60;;
27543;SDS011;17996;51.056;3.656;2022-07-12T04:50:21;7.55;;;5.35;;
27543;SDS011;17996;51.056;3.656;2022-07-12T04:52:47;5.43;;;4.57;;
27543;SDS011;17996;51.056;3.656;2022-07-12T04:55:12;5.70;;;5.15;;
27543;SDS011;17996;51.056;3.656;2022-07-12T04:57:38;5.20;;;4.75;;
27543;SDS011;17996;51.056;3.656;2022-07-12T05:00:04;7.15;;;4.82;;
27543;SDS011;17996;51.056;3.656;2022-07-12T05:02:31;6.57;;;4.68;;
27543;SDS011;17996;51.056;3.656;2022-07-12T05:04:57;9.30;;;4.90;;
27543;SDS011;17996;51.056;3.656;2022-07-12T05:07:23;8.93;;;5.47;;
27543;SDS011;17996;51.056;3.656;2022-07-12T05:09:49;5.00;;;4.50;;
27543;SDS011;17996;51.056;3.656;2022-07-12T05:12:16;9.77;;;4.95;;
27543;SDS011;17996;51.056;3.656;2022-07-12T05:14:42;5.05;;;4.57;;
27543;SDS011;17996;51.056;3.656;2022-07-12T05:17:07;8.75;;;4.70;;
27543;SDS011;17996;51.056;3.656;2022-07-12T05:19:33;6.88;;;4.60;;
27543;SDS011;17996;51.056;3.656;2022-07-12T05:21:59;5.65;;;4.65;;
27543;SDS011;17996;51.056;3.656;2022-07-12T05:24:24;7.38;;;4.35;;
27543;SDS011;17996;51.056;3.656;2022-07-12T05:26:50;11.65;;;5.55;;
27543;SDS011;17996;51.056;3.656;2022-07-12T05:29:16;6.07;;;4.72;;
27543;SDS011;17996;51.056;3.656;2022-07-12T05:31:41;7.47;;;5.25;;
27543;SDS011;17996;51.056;3.656;2022-07-12T05:34:07;8.18;;;5.10;;
27543;SDS011;17996;51.056;3.656;2022-07-12T05:36:32;8.63;;;5.13;;
27543;SDS011;17996;51.056;3.656;2022-07-12T05:38:58;15.15;;;5.55;;
27543;SDS011;17996;51.056;3.656;2022-07-12T05:41:24;7.65;;;5.10;;
27543;SDS011;17996;51.056;3.656;2022-07-12T05:43:50;7.55;;;4.95;;
27543;SDS011;17996;51.056;3.656;2022-07-12T05:46:15;8.02;;;5.72;;
27543;SDS011;17996;51.056;3.656;2022-07-12T05:48:41;7.22;;;6.00;;
27543;SDS011;17996;51.056;3.656;2022-07-12T05:51:07;10.32;;;5.03;;
27543;SDS011;17996;51.056;3.656;2022-07-12T05:53:51;7.35;;;5.80;;
27543;SDS011;17996;51.056;3.656;2022-07-12T05:56:17;12.52;;;6.68;;
27543;SDS011;17996;51.056;3.656;2022-07-12T05:58:42;7.53;;;5.63;;
27543;SDS011;17996;51.056;3.656;2022-07-12T06:01:08;10.73;;;7.32;;
27543;SDS011;17996;51.056;3.656;2022-07-12T06:03:33;10.35;;;6.85;;
27543;SDS011;17996;51.056;3.656;2022-07-12T06:05:59;22.38;;;7.18;;
27543;SDS011;17996;51.056;3.656;2022-07-12T06:08:25;9.48;;;6.82;;
27543;SDS011;17996;51.056;3.656;2022-07-12T06:10:51;10.02;;;6.07;;
27543;SDS011;17996;51.056;3.656;2022-07-12T06:13:16;12.70;;;6.85;;
27543;SDS011;17996;51.056;3.656;2022-07-12T06:15:42;11.48;;;7.32;;
27543;SDS011;17996;51.056;3.656;2022-07-12T06:18:08;9.77;;;7.50;;
27543;SDS011;17996;51.056;3.656;2022-07-12T06:20:33;11.52;;;7.75;;
27543;SDS011;17996;51.056;3.656;2022-07-12T06:22:59;14.05;;;7.72;;
27543;SDS011;17996;51.056;3.656;2022-07-12T06:25:25;11.23;;;6.70;;
27543;SDS011;17996;51.056;3.656;2022-07-12T06:27:51;9.18;;;7.35;;
27543;SDS011;17996;51.056;3.656;2022-07-12T06:30:17;11.20;;;7.70;;
27543;SDS011;17996;51.056;3.656;2022-07-12T06:32:47;9.20;;;7.72;;
27543;SDS011;17996;51.056;3.656;2022-07-12T06:35:14;12.27;;;7.78;;
27543;SDS011;17996;51.056;3.656;2022-07-12T06:37:40;8.02;;;6.22;;
27543;SDS011;17996;51.056;3.656;2022-07-12T06:40:08;16.13;;;7.35;;
27543;SDS011;17996;51.056;3.656;2022-07-12T06:42:35;19.60;;;7.38;;
27543;SDS011;17996;51.056;3.656;2022-07-12T06:45:01;12.98;;;6.68;;
27543;SDS011;17996;51.056;3.656;2022-07-12T06:47:27;11.65;;;7.32;;
27543;SDS011;17996;51.056;3.656;2022-07-12T06:49:53;9.77;;;8.10;;
27543;SDS011;17996;51.056;3.656;2022-07-12T06:52:18;10.18;;;8.23;;
27543;SDS011;17996;51.056;3.656;2022-07-12T06:54:44;10.52;;;7.35;;
27543;SDS011;17996;51.056;3.656;2022-07-12T06:57:10;9.90;;;7.30;;
27543;SDS011;17996;51.056;3.656;2022-07-12T06:59:36;10.90;;;8.40;;
27543;SDS011;17996;51.056;3.656;2022-07-12T07:02:02;8.38;;;6.88;;
27543;SDS011;17996;51.056;3.656;2022-07-12T07:04:27;10.27;;;7.20;;
27543;SDS011;17996;51.056;3.656;2022-07-12T07:06:53;10.55;;;8.27;;
27543;SDS011;17996;51.056;3.656;2022-07-12T07:09:20;9.88;;;7.68;;
27543;SDS011;17996;51.056;3.656;2022-07-12T07:11:46;10.40;;;7.15;;
27543;SDS011;17996;51.056;3.656;2022-07-12T07:14:12;9.88;;;8.52;;
27543;SDS011;17996;51.056;3.656;2022-07-12T07:16:37;11.00;;;7.32;;
27543;SDS011;17996;51.056;3.656;2022-07-12T07:19:03;10.27;;;7.78;;
27543;SDS011;17996;51.056;3.656;2022-07-12T07:21:30;13.57;;;7.50;;
27543;SDS011;17996;51.056;3.656;2022-07-12T07:23:56;19.83;;;7.40;;
27543;SDS011;17996;51.056;3.656;2022-07-12T07:26:22;8.13;;;7.10;;
27543;SDS011;17996;51.056;3.656;2022-07-12T07:28:48;10.73;;;7.55;;
27543;SDS011;17996;51.056;3.656;2022-07-12T07:31:37;16.02;;;7.10;;
27543;SDS011;17996;51.056;3.656;2022-07-12T07:34:03;9.00;;;7.60;;
27543;SDS011;17996;51.056;3.656;2022-07-12T07:36:29;9.85;;;6.85;;
27543;SDS011;17996;51.056;3.656;2022-07-12T07:38:56;9.13;;;7.28;;
27543;SDS011;17996;51.056;3.656;2022-07-12T07:41:23;8.88;;;6.68;;
27543;SDS011;17996;51.056;3.656;2022-07-12T07:43:48;13.20;;;7.13;;
27543;SDS011;17996;51.056;3.656;2022-07-12T07:46:14;12.43;;;7.45;;
27543;SDS011;17996;51.056;3.656;2022-07-12T07:48:40;10.13;;;7.13;;
27543;SDS011;17996;51.056;3.656;2022-07-12T07:51:06;10.95;;;7.05;;
27543;SDS011;17996;51.056;3.656;2022-07-12T07:53:31;13.10;;;7.85;;
27543;SDS011;17996;51.056;3.656;2022-07-12T07:55:57;9.45;;;7.07;;
27543;SDS011;17996;51.056;3.656;2022-07-12T07:58:23;12.43;;;7.57;;
27543;SDS011;17996;51.056;3.656;2022-07-12T08:00:49;12.05;;;7.82;;
27543;SDS011;17996;51.056;3.656;2022-07-12T08:03:16;7.75;;;6.93;;
27543;SDS011;17996;51.056;3.656;2022-07-12T08:05:42;10.68;;;7.90;;
27543;SDS011;17996;51.056;3.656;2022-07-12T08:08:07;14.90;;;6.70;;
27543;SDS011;17996;51.056;3.656;2022-07-12T08:10:33;11.70;;;6.85;;
27543;SDS011;17996;51.056;3.656;2022-07-12T08:12:59;8.23;;;6.78;;
27543;SDS011;17996;51.056;3.656;2022-07-12T08:15:25;10.43;;;6.25;;
27543;SDS011;17996;51.056;3.656;2022-07-12T08:17:51;15.05;;;6.15;;
27543;SDS011;17996;51.056;3.656;2022-07-12T08:20:17;8.43;;;6.45;;
27543;SDS011;17996;51.056;3.656;2022-07-12T08:22:43;7.85;;;6.50;;
27543;SDS011;17996;51.056;3.656;2022-07-12T08:25:10;8.20;;;6.22;;
27543;SDS011;17996;51.056;3.656;2022-07-12T08:27:36;7.97;;;5.93;;
27543;SDS011;17996;51.056;3.656;2022-07-12T08:30:02;8.95;;;6.28;;
27543;SDS011;17996;51.056;3.656;2022-07-12T08:32:28;7.15;;;5.88;;
27543;SDS011;17996;51.056;3.656;2022-07-12T08:34:54;8.38;;;5.70;;
27543;SDS011;17996;51.056;3.656;2022-07-12T08:37:22;16.00;;;5.50;;
27543;SDS011;17996;51.056;3.656;2022-07-12T08:39:48;7.63;;;5.43;;
27543;SDS011;17996;51.056;3.656;2022-07-12T08:42:14;8.48;;;6.00;;
27543;SDS011;17996;51.056;3.656;2022-07-12T08:44:41;5.53;;;4.57;;
27543;SDS011;17996;51.056;3.656;2022-07-12T08:47:18;5.93;;;4.68;;
27543;SDS011;17996;51.056;3.656;2022-07-12T08:50:29;8.05;;;5.28;;
27543;SDS011;17996;51.056;3.656;2022-07-12T08:52:41;7.95;;;4.80;;
27543;SDS011;17996;51.056;3.656;2022-07-12T08:55:22;7.30;;;4.85;;
27543;SDS011;17996;51.056;3.656;2022-07-12T08:57:51;5.43;;;4.85;;
27543;SDS011;17996;51.056;3.656;2022-07-12T09:00:18;7.38;;;4.38;;
27543;SDS011;17996;51.056;3.656;2022-07-12T09:05:18;8.35;;;5.43;;
27543;SDS011;17996;51.056;3.656;2022-07-12T09:07:51;5.82;;;5.22;;
27543;SDS011;17996;51.056;3.656;2022-07-12T09:10:26;8.73;;;5.28;;
27543;SDS011;17996;51.056;3.656;2022-07-12T09:12:51;5.28;;;4.07;;
27543;SDS011;17996;51.056;3.656;2022-07-12T09:15:21;7.68;;;4.43;;
27543;SDS011;17996;51.056;3.656;2022-07-12T09:18:20;9.00;;;4.38;;
27543;SDS011;17996;51.056;3.656;2022-07-12T09:20:51;10.00;;;3.70;;
27543;SDS011;17996;51.056;3.656;2022-07-12T09:23:17;5.75;;;3.63;;
27543;SDS011;17996;51.056;3.656;2022-07-12T09:25:44;4.25;;;3.83;;
27543;SDS011;17996;51.056;3.656;2022-07-12T09:28:11;6.88;;;3.97;;
27543;SDS011;17996;51.056;3.656;2022-07-12T09:30:37;5.03;;;3.70;;
27543;SDS011;17996;51.056;3.656;2022-07-12T09:33:19;6.07;;;3.88;;
27543;SDS011;17996;51.056;3.656;2022-07-12T09:36:05;5.28;;;4.18;;
27543;SDS011;17996;51.056;3.656;2022-07-12T09:41:19;4.10;;;3.40;;
27543;SDS011;17996;51.056;3.656;2022-07-12T09:43:48;7.45;;;3.35;;
27543;SDS011;17996;51.056;3.656;2022-07-12T09:46:15;4.95;;;3.38;;
27543;SDS011;17996;51.056;3.656;2022-07-12T09:48:41;4.22;;;3.00;;
27543;SDS011;17996;51.056;3.656;2022-07-12T09:51:09;5.18;;;3.55;;
27543;SDS011;17996;51.056;3.656;2022-07-12T09:53:46;5.35;;;3.38;;
27543;SDS011;17996;51.056;3.656;2022-07-12T09:56:13;5.72;;;3.67;;
27543;SDS011;17996;51.056;3.656;2022-07-12T09:58:47;4.80;;;3.40;;
27543;SDS011;17996;51.056;3.656;2022-07-12T10:01:25;7.03;;;3.35;;
27543;SDS011;17996;51.056;3.656;2022-07-12T10:03:51;6.18;;;3.42;;
27543;SDS011;17996;51.056;3.656;2022-07-12T10:06:35;5.45;;;2.85;;
27543;SDS011;17996;51.056;3.656;2022-07-12T10:09:01;5.85;;;3.70;;
27543;SDS011;17996;51.056;3.656;2022-07-12T10:11:28;15.30;;;3.80;;
27543;SDS011;17996;51.056;3.656;2022-07-12T10:13:54;6.15;;;3.33;;
27543;SDS011;17996;51.056;3.656;2022-07-12T10:16:26;6.35;;;3.08;;
27543;SDS011;17996;51.056;3.656;2022-07-12T10:21:51;5.53;;;3.05;;
27543;SDS011;17996;51.056;3.656;2022-07-12T10:25:04;7.35;;;3.05;;
27543;SDS011;17996;51.056;3.656;2022-07-12T10:29:41;8.23;;;3.28;;
27543;SDS011;17996;51.056;3.656;2022-07-12T10:35:05;3.13;;;2.83;;
27543;SDS011;17996;51.056;3.656;2022-07-12T10:37:33;4.28;;;2.50;;
27543;SDS011;17996;51.056;3.656;2022-07-12T10:40:16;8.48;;;3.03;;
27543;SDS011;17996;51.056;3.656;2022-07-12T10:45:32;3.85;;;3.17;;
27543;SDS011;17996;51.056;3.656;2022-07-12T10:58:29;4.47;;;2.80;;
27543;SDS011;17996;51.056;3.656;2022-07-12T11:00:56;5.20;;;2.90;;
27543;SDS011;17996;51.056;3.656;2022-07-12T11:03:55;11.02;;;3.13;;
27543;SDS011;17996;51.056;3.656;2022-07-12T11:06:33;5.32;;;2.80;;
27543;SDS011;17996;51.056;3.656;2022-07-12T11:09:02;4.45;;;3.15;;
27543;SDS011;17996;51.056;3.656;2022-07-12T11:11:51;5.63;;;2.78;;
27543;SDS011;17996;51.056;3.656;2022-07-12T11:14:28;5.95;;;2.45;;
27543;SDS011;17996;51.056;3.656;2022-07-12T11:16:58;4.20;;;2.67;;
27543;SDS011;17996;51.056;3.656;2022-07-12T11:19:25;5.88;;;2.40;;
27543;SDS011;17996;51.056;3.656;2022-07-12T11:21:52;4.67;;;2.80;;
27543;SDS011;17996;51.056;3.656;2022-07-12T11:24:26;5.88;;;2.85;;
27543;SDS011;17996;51.056;3.656;2022-07-12T11:26:54;2.67;;;2.30;;
27543;SDS011;17996;51.056;3.656;2022-07-12T11:29:20;8.82;;;2.80;;
27543;SDS011;17996;51.056;3.656;2022-07-12T11:31:47;3.65;;;2.72;;
27543;SDS011;17996;51.056;3.656;2022-07-12T11:34:23;3.95;;;2.50;;
27543;SDS011;17996;51.056;3.656;2022-07-12T11:36:53;2.88;;;2.55;;
27543;SDS011;17996;51.056;3.656;2022-07-12T11:41:59;2.85;;;2.47;;
27543;SDS011;17996;51.056;3.656;2022-07-12T11:47:13;4.47;;;2.40;;
27543;SDS011;17996;51.056;3.656;2022-07-12T11:49:44;5.05;;;2.90;;
27543;SDS011;17996;51.056;3.656;2022-07-12T11:52:12;6.55;;;3.08;;
27543;SDS011;17996;51.056;3.656;2022-07-12T11:54:42;3.40;;;2.45;;
27543;SDS011;17996;51.056;3.656;2022-07-12T11:57:12;3.63;;;1.90;;
27543;SDS011;17996;51.056;3.656;2022-07-12T11:59:39;4.28;;;2.05;;
27543;SDS011;17996;51.056;3.656;2022-07-12T12:02:05;8.85;;;2.40;;
27543;SDS011;17996;51.056;3.656;2022-07-12T12:04:35;5.28;;;2.50;;
27543;SDS011;17996;51.056;3.656;2022-07-12T12:07:16;6.93;;;2.78;;
27543;SDS011;17996;51.056;3.656;2022-07-12T12:12:45;5.55;;;2.25;;
27543;SDS011;17996;51.056;3.656;2022-07-12T12:15:30;6.32;;;2.50;;
27543;SDS011;17996;51.056;3.656;2022-07-12T12:18:07;6.22;;;2.38;;
27543;SDS011;17996;51.056;3.656;2022-07-12T12:20:39;5.13;;;2.45;;
27543;SDS011;17996;51.056;3.656;2022-07-12T12:23:18;4.75;;;2.33;;
27543;SDS011;17996;51.056;3.656;2022-07-12T12:25:44;4.57;;;2.15;;
27543;SDS011;17996;51.056;3.656;2022-07-12T12:28:13;4.20;;;2.20;;
27543;SDS011;17996;51.056;3.656;2022-07-12T12:30:49;3.63;;;2.22;;
27543;SDS011;17996;51.056;3.656;2022-07-12T12:33:37;2.10;;;2.00;;
27543;SDS011;17996;51.056;3.656;2022-07-12T12:36:20;2.70;;;1.65;;
27543;SDS011;17996;51.056;3.656;2022-07-12T12:38:49;2.08;;;1.90;;
27543;SDS011;17996;51.056;3.656;2022-07-12T12:41:17;2.50;;;2.10;;
27543;SDS011;17996;51.056;3.656;2022-07-12T12:43:47;2.70;;;2.28;;
27543;SDS011;17996;51.056;3.656;2022-07-12T12:46:20;2.05;;;1.85;;
27543;SDS011;17996;51.056;3.656;2022-07-12T12:48:47;3.47;;;2.28;;
27543;SDS011;17996;51.056;3.656;2022-07-12T12:51:13;3.38;;;2.28;;
27543;SDS011;17996;51.056;3.656;2022-07-12T12:53:41;3.83;;;2.30;;
27543;SDS011;17996;51.056;3.656;2022-07-12T12:56:08;4.00;;;2.33;;
27543;SDS011;17996;51.056;3.656;2022-07-12T13:01:03;5.35;;;2.30;;
27543;SDS011;17996;51.056;3.656;2022-07-12T13:03:29;2.50;;;2.30;;
27543;SDS011;17996;51.056;3.656;2022-07-12T13:05:55;3.97;;;2.13;;
27543;SDS011;17996;51.056;3.656;2022-07-12T13:08:22;3.50;;;2.15;;
27543;SDS011;17996;51.056;3.656;2022-07-12T13:10:49;3.05;;;2.10;;
27543;SDS011;17996;51.056;3.656;2022-07-12T13:13:38;2.90;;;1.63;;
27543;SDS011;17996;51.056;3.656;2022-07-12T13:16:05;3.33;;;1.90;;
27543;SDS011;17996;51.056;3.656;2022-07-12T13:18:31;7.72;;;2.08;;
27543;SDS011;17996;51.056;3.656;2022-07-12T13:20:57;2.50;;;1.80;;
27543;SDS011;17996;51.056;3.656;2022-07-12T13:23:23;2.10;;;1.63;;
27543;SDS011;17996;51.056;3.656;2022-07-12T13:25:48;2.83;;;1.85;;
27543;SDS011;17996;51.056;3.656;2022-07-12T13:28:14;5.65;;;1.65;;
27543;SDS011;17996;51.056;3.656;2022-07-12T13:30:40;2.08;;;1.83;;
27543;SDS011;17996;51.056;3.656;2022-07-12T13:33:06;5.82;;;1.55;;
27543;SDS011;17996;51.056;3.656;2022-07-12T13:35:31;5.38;;;1.75;;
27543;SDS011;17996;51.056;3.656;2022-07-12T13:37:57;2.28;;;1.80;;
27543;SDS011;17996;51.056;3.656;2022-07-12T13:40:23;2.90;;;1.83;;
27543;SDS011;17996;51.056;3.656;2022-07-12T13:42:50;3.35;;;1.70;;
27543;SDS011;17996;51.056;3.656;2022-07-12T13:45:17;2.40;;;1.50;;
27543;SDS011;17996;51.056;3.656;2022-07-12T13:47:44;5.30;;;2.50;;
27543;SDS011;17996;51.056;3.656;2022-07-12T13:50:12;3.75;;;1.60;;
27543;SDS011;17996;51.056;3.656;2022-07-12T13:52:39;1.88;;;1.70;;
27543;SDS011;17996;51.056;3.656;2022-07-12T13:55:06;3.35;;;1.80;;
27543;SDS011;17996;51.056;3.656;2022-07-12T13:57:34;6.00;;;2.07;;
27543;SDS011;17996;51.056;3.656;2022-07-12T14:00:00;3.97;;;2.00;;
27543;SDS011;17996;51.056;3.656;2022-07-12T14:02:27;2.90;;;1.90;;
27543;SDS011;17996;51.056;3.656;2022-07-12T14:04:53;4.00;;;1.85;;
27543;SDS011;17996;51.056;3.656;2022-07-12T14:07:18;3.38;;;1.80;;
27543;SDS011;17996;51.056;3.656;2022-07-12T14:09:46;2.53;;;2.28;;
27543;SDS011;17996;51.056;3.656;2022-07-12T14:12:11;2.63;;;1.77;;
27543;SDS011;17996;51.056;3.656;2022-07-12T14:14:37;5.82;;;1.90;;
27543;SDS011;17996;51.056;3.656;2022-07-12T14:17:22;1.92;;;1.73;;
27543;SDS011;17996;51.056;3.656;2022-07-12T14:19:48;3.67;;;1.75;;
27543;SDS011;17996;51.056;3.656;2022-07-12T14:22:13;7.05;;;2.00;;
27543;SDS011;17996;51.056;3.656;2022-07-12T14:24:39;3.50;;;1.90;;
27543;SDS011;17996;51.056;3.656;2022-07-12T14:27:05;3.55;;;1.75;;
27543;SDS011;17996;51.056;3.656;2022-07-12T14:29:31;4.18;;;1.90;;
27543;SDS011;17996;51.056;3.656;2022-07-12T14:31:57;2.38;;;1.70;;
27543;SDS011;17996;51.056;3.656;2022-07-12T14:34:23;3.38;;;1.98;;
27543;SDS011;17996;51.056;3.656;2022-07-12T14:36:49;5.97;;;1.83;;
27543;SDS011;17996;51.056;3.656;2022-07-12T14:39:15;6.13;;;2.00;;
27543;SDS011;17996;51.056;3.656;2022-07-12T14:41:41;3.47;;;2.00;;
27543;SDS011;17996;51.056;3.656;2022-07-12T14:44:06;2.85;;;2.10;;
27543;SDS011;17996;51.056;3.656;2022-07-12T14:46:32;3.33;;;1.80;;
27543;SDS011;17996;51.056;3.656;2022-07-12T14:48:58;2.78;;;2.05;;
27543;SDS011;17996;51.056;3.656;2022-07-12T14:51:24;2.25;;;1.73;;
27543;SDS011;17996;51.056;3.656;2022-07-12T14:53:50;2.60;;;1.92;;
27543;SDS011;17996;51.056;3.656;2022-07-12T14:56:17;9.70;;;1.70;;
27543;SDS011;17996;51.056;3.656;2022-07-12T14:58:46;6.68;;;1.80;;
27543;SDS011;17996;51.056;3.656;2022-07-12T15:01:12;10.10;;;2.10;;
27543;SDS011;17996;51.056;3.656;2022-07-12T15:03:37;4.03;;;1.85;;
27543;SDS011;17996;51.056;3.656;2022-07-12T15:06:03;5.90;;;1.95;;
27543;SDS011;17996;51.056;3.656;2022-07-12T15:08:30;3.67;;;1.65;;
27543;SDS011;17996;51.056;3.656;2022-07-12T15:10:56;7.85;;;1.80;;
27543;SDS011;17996;51.056;3.656;2022-07-12T15:13:22;6.32;;;1.77;;
27543;SDS011;17996;51.056;3.656;2022-07-12T15:15:49;2.88;;;1.75;;
27543;SDS011;17996;51.056;3.656;2022-07-12T15:18:15;3.72;;;1.48;;
27543;SDS011;17996;51.056;3.656;2022-07-12T15:20:41;2.13;;;1.27;;
27543;SDS011;17996;51.056;3.656;2022-07-12T15:23:07;5.15;;;1.60;;
27543;SDS011;17996;51.056;3.656;2022-07-12T15:25:33;3.17;;;1.50;;
27543;SDS011;17996;51.056;3.656;2022-07-12T15:27:58;3.60;;;1.30;;
27543;SDS011;17996;51.056;3.656;2022-07-12T15:30:24;10.25;;;1.58;;
27543;SDS011;17996;51.056;3.656;2022-07-12T15:32:50;2.67;;;1.38;;